createdAt,value
2019-02-28T00:00:24.871Z,8.02
2019-02-28T00:01:24.828Z,7.90
2019-02-28T00:02:24.820Z,8.02
2019-02-28T00:03:26.106Z,7.98
2019-02-28T00:04:24.815Z,8.02
2019-02-28T00:05:24.811Z,8.10
2019-02-28T00:06:24.773Z,7.98
2019-02-28T00:07:24.764Z,8.04
2019-02-28T00:08:24.749Z,8.02
2019-02-28T00:09:25.646Z,8.05
2019-02-28T00:10:24.726Z,8.04
2019-02-28T00:11:24.732Z,8.01
2019-02-28T00:12:24.705Z,8.02
2019-02-28T00:13:24.696Z,8.00
2019-02-28T00:14:27.772Z,8.12
2019-02-28T00:15:24.676Z,8.05
2019-02-28T00:16:24.676Z,8.02
2019-02-28T00:17:24.649Z,8.01
2019-02-28T00:18:24.638Z,8.00
2019-02-28T00:19:24.627Z,7.93
2019-02-28T00:20:24.617Z,8.05
2019-02-28T00:21:24.632Z,7.97
2019-02-28T00:22:24.593Z,8.04
2019-02-28T00:23:24.581Z,8.00
2019-02-28T00:24:27.239Z,7.82
2019-02-28T00:25:25.564Z,7.87
2019-02-28T00:26:24.547Z,7.82
2019-02-28T00:27:24.555Z,7.83
2019-02-28T00:28:25.913Z,7.92
2019-02-28T00:29:24.513Z,7.93
2019-02-28T00:30:24.502Z,7.87
2019-02-28T00:31:24.490Z,7.89
2019-02-28T00:32:24.845Z,7.77
2019-02-28T00:33:24.468Z,7.75
2019-02-28T00:34:24.460Z,7.90
2019-02-28T00:35:24.446Z,7.89
2019-02-28T00:36:24.434Z,7.86
2019-02-28T00:37:25.564Z,7.89
2019-02-28T00:38:29.471Z,7.92
2019-02-28T00:39:25.417Z,7.86
2019-02-28T00:40:24.390Z,7.87
2019-02-28T00:41:24.378Z,7.90
2019-02-28T00:42:24.364Z,7.79
2019-02-28T00:43:25.159Z,7.92
2019-02-28T00:44:24.345Z,7.83
2019-02-28T00:45:24.332Z,7.90
2019-02-28T00:46:24.319Z,7.77
2019-02-28T00:47:24.316Z,7.85
2019-02-28T00:48:24.318Z,7.92
2019-02-28T00:49:25.075Z,7.83
2019-02-28T00:50:24.279Z,7.87
2019-02-28T00:51:24.263Z,7.77
2019-02-28T00:52:24.252Z,7.79
2019-02-28T00:53:24.270Z,7.83
2019-02-28T00:54:24.227Z,7.77
2019-02-28T00:55:24.222Z,7.87
2019-02-28T00:56:24.206Z,7.79
2019-02-28T00:57:24.682Z,7.74
2019-02-28T00:58:28.605Z,7.90
2019-02-28T00:59:25.187Z,7.85
2019-02-28T01:00:24.158Z,7.83
2019-02-28T01:01:24.148Z,7.89
2019-02-28T01:02:24.138Z,7.87
2019-02-28T01:03:27.446Z,7.85
2019-02-28T01:04:24.131Z,7.82
2019-02-28T01:05:24.106Z,7.83
2019-02-28T01:06:24.093Z,7.89
2019-02-28T01:07:24.079Z,7.90
2019-02-28T01:08:24.071Z,7.86
2019-02-28T01:09:24.084Z,7.86
2019-02-28T01:10:24.046Z,7.80
2019-02-28T01:11:24.033Z,7.74
2019-02-28T01:12:24.026Z,7.77
2019-02-28T01:13:27.253Z,7.69
2019-02-28T01:14:24.005Z,7.74
2019-02-28T01:15:24.008Z,7.77
2019-02-28T01:16:23.980Z,7.74
2019-02-28T01:17:26.500Z,7.72
2019-02-28T01:18:23.959Z,7.74
2019-02-28T01:19:23.944Z,7.72
2019-02-28T01:20:23.952Z,7.74
2019-02-28T01:21:24.582Z,7.64
2019-02-28T01:22:26.840Z,7.64
2019-02-28T01:23:23.897Z,7.72
2019-02-28T01:24:23.888Z,7.64
2019-02-28T01:25:23.904Z,7.68
2019-02-28T01:26:23.866Z,7.69
2019-02-28T01:27:23.852Z,7.72
2019-02-28T01:28:26.903Z,7.61
2019-02-28T01:29:23.830Z,7.64
2019-02-28T01:30:23.819Z,7.60
2019-02-28T01:31:23.824Z,7.67
2019-02-28T01:32:23.798Z,7.63
2019-02-28T01:33:24.999Z,7.71
2019-02-28T01:34:23.770Z,7.71
2019-02-28T01:35:23.765Z,7.72
2019-02-28T01:36:23.767Z,7.74
2019-02-28T01:37:23.737Z,7.72
2019-02-28T01:38:24.228Z,7.72
2019-02-28T01:39:23.715Z,7.74
2019-02-28T01:40:23.709Z,7.63
2019-02-28T01:41:23.720Z,7.71
2019-02-28T01:42:23.682Z,7.71
2019-02-28T01:43:28.360Z,7.71
2019-02-28T01:44:24.660Z,7.72
2019-02-28T01:45:23.645Z,7.74
2019-02-28T01:46:23.634Z,7.72
2019-02-28T01:47:23.638Z,7.75
2019-02-28T01:48:23.768Z,7.72
2019-02-28T01:49:26.028Z,7.86
2019-02-28T01:50:23.589Z,7.85
2019-02-28T01:51:23.577Z,7.89
2019-02-28T01:52:23.583Z,7.90
2019-02-28T01:53:23.555Z,7.82
2019-02-28T01:54:25.130Z,7.92
2019-02-28T01:55:23.531Z,7.87
2019-02-28T01:56:23.519Z,7.89
2019-02-28T01:57:23.537Z,7.89
2019-02-28T01:58:23.501Z,7.83
2019-02-28T01:59:26.150Z,7.92
2019-02-28T02:00:24.423Z,7.83
2019-02-28T02:01:23.465Z,7.83
2019-02-28T02:02:23.451Z,7.97
2019-02-28T02:03:23.456Z,7.89
2019-02-28T02:04:23.428Z,7.97
2019-02-28T02:05:23.416Z,7.85
2019-02-28T02:06:25.754Z,7.87
2019-02-28T02:07:23.393Z,7.97
2019-02-28T02:08:23.397Z,7.98
2019-02-28T02:09:23.370Z,8.01
2019-02-28T02:10:23.361Z,8.00
2019-02-28T02:11:23.346Z,8.00
2019-02-28T02:12:23.336Z,7.98
2019-02-28T02:13:23.359Z,8.01
2019-02-28T02:14:23.313Z,7.98
2019-02-28T02:15:23.300Z,8.01
2019-02-28T02:16:26.785Z,7.87
2019-02-28T02:17:23.284Z,8.00
2019-02-28T02:18:23.270Z,8.00
2019-02-28T02:19:23.274Z,8.00
2019-02-28T02:20:23.449Z,8.01
2019-02-28T02:21:23.652Z,8.02
2019-02-28T02:22:23.224Z,8.10
2019-02-28T02:23:23.211Z,8.05
2019-02-28T02:24:24.398Z,8.05
2019-02-28T02:25:23.187Z,8.04
2019-02-28T02:26:23.176Z,8.02
2019-02-28T02:27:23.164Z,8.00
2019-02-28T02:28:26.701Z,8.05
2019-02-28T02:29:23.170Z,8.15
2019-02-28T02:30:23.142Z,8.15
2019-02-28T02:31:27.252Z,8.10
2019-02-28T02:32:24.106Z,8.12
2019-02-28T02:33:23.100Z,8.07
2019-02-28T02:34:24.383Z,8.05
2019-02-28T02:35:23.092Z,8.10
2019-02-28T02:36:23.063Z,8.11
2019-02-28T02:37:26.389Z,8.08
2019-02-28T02:38:24.039Z,8.08
2019-02-28T02:39:23.659Z,8.16
2019-02-28T02:40:24.204Z,8.15
2019-02-28T02:41:23.005Z,8.15
2019-02-28T02:42:22.995Z,8.12
2019-02-28T02:43:23.150Z,8.18
2019-02-28T02:44:22.972Z,8.15
2019-02-28T02:45:22.979Z,8.15
2019-02-28T02:46:23.005Z,8.12
2019-02-28T02:47:22.937Z,8.18
2019-02-28T02:48:22.930Z,8.15
2019-02-28T02:49:22.913Z,8.15
2019-02-28T02:50:22.923Z,8.12
2019-02-28T02:51:22.890Z,8.18
2019-02-28T02:52:29.953Z,8.15
2019-02-28T02:53:23.871Z,8.20
2019-02-28T02:54:22.857Z,8.10
2019-02-28T02:55:27.708Z,8.12
2019-02-28T02:56:23.835Z,8.12
2019-02-28T02:57:23.662Z,8.12
2019-02-28T02:58:27.836Z,8.20
2019-02-28T02:59:22.798Z,8.25
2019-02-28T03:00:22.787Z,8.23
2019-02-28T03:01:23.442Z,8.15
2019-02-28T03:02:22.767Z,8.16
2019-02-28T03:03:22.754Z,8.16
2019-02-28T03:04:23.502Z,8.28
2019-02-28T03:05:22.730Z,8.22
2019-02-28T03:06:22.736Z,8.19
2019-02-28T03:07:24.562Z,8.23
2019-02-28T03:08:22.715Z,8.26
2019-02-28T03:09:22.689Z,8.23
2019-02-28T03:10:22.676Z,8.28
2019-02-28T03:11:24.747Z,8.25
2019-02-28T03:12:22.655Z,8.23
2019-02-28T03:13:22.648Z,8.26
2019-02-28T03:14:22.627Z,8.22
2019-02-28T03:15:26.951Z,8.20
2019-02-28T03:16:22.606Z,8.25
2019-02-28T03:17:22.615Z,8.18
2019-02-28T03:18:22.586Z,8.18
2019-02-28T03:19:23.165Z,8.23
2019-02-28T03:20:22.561Z,8.20
2019-02-28T03:21:22.549Z,8.08
2019-02-28T03:22:28.075Z,8.18
2019-02-28T03:23:23.526Z,8.19
2019-02-28T03:24:23.518Z,8.19
2019-02-28T03:25:28.263Z,8.16
2019-02-28T03:26:22.492Z,8.15
2019-02-28T03:27:22.509Z,8.15
2019-02-28T03:28:23.165Z,8.18
2019-02-28T03:29:22.466Z,8.16
2019-02-28T03:30:29.306Z,8.16
2019-02-28T03:31:23.446Z,8.16
2019-02-28T03:32:22.428Z,8.15
2019-02-28T03:33:27.223Z,8.08
2019-02-28T03:34:23.402Z,8.10
2019-02-28T03:35:22.392Z,8.05
2019-02-28T03:36:22.380Z,8.08
2019-02-28T03:37:22.367Z,8.18
2019-02-28T03:38:22.677Z,8.02
2019-02-28T03:39:24.599Z,8.04
2019-02-28T03:40:22.332Z,8.05
2019-02-28T03:41:22.327Z,8.00
2019-02-28T03:42:28.515Z,8.00
2019-02-28T03:43:23.332Z,8.01
2019-02-28T03:44:22.287Z,8.05
2019-02-28T03:45:22.282Z,8.01
2019-02-28T03:46:22.274Z,8.01
2019-02-28T03:47:23.852Z,8.00
2019-02-28T03:48:22.245Z,8.08
2019-02-28T03:49:23.166Z,8.11
2019-02-28T03:50:23.077Z,8.12
2019-02-28T03:51:22.215Z,8.19
2019-02-28T03:52:23.198Z,8.15
2019-02-28T03:53:22.188Z,8.16
2019-02-28T03:54:22.202Z,8.19
2019-02-28T03:55:22.161Z,8.18
2019-02-28T03:56:22.154Z,8.22
2019-02-28T03:57:28.004Z,8.33
2019-02-28T03:58:23.133Z,8.23
2019-02-28T03:59:22.157Z,8.33
2019-02-28T04:00:22.670Z,8.33
2019-02-28T04:01:22.090Z,8.40
2019-02-28T04:02:22.538Z,8.30
2019-02-28T04:03:22.123Z,8.33
2019-02-28T04:04:22.071Z,8.29
2019-02-28T04:05:28.092Z,8.38
2019-02-28T04:06:23.042Z,8.33
2019-02-28T04:07:23.692Z,8.37
2019-02-28T04:08:22.012Z,8.34
2019-02-28T04:09:22.002Z,8.37
2019-02-28T04:10:22.616Z,8.37
2019-02-28T04:11:21.980Z,8.37
2019-02-28T04:12:21.967Z,8.34
2019-02-28T04:13:21.958Z,8.30
2019-02-28T04:14:21.946Z,8.38
2019-02-28T04:15:21.935Z,8.38
2019-02-28T04:16:21.941Z,8.30
2019-02-28T04:17:21.914Z,8.40
2019-02-28T04:18:21.903Z,8.30
2019-02-28T04:19:22.980Z,8.33
2019-02-28T04:20:21.882Z,8.34
2019-02-28T04:21:21.899Z,8.25
2019-02-28T04:22:23.067Z,8.29
2019-02-28T04:23:21.844Z,8.29
2019-02-28T04:24:21.837Z,8.33
2019-02-28T04:25:24.198Z,8.28
2019-02-28T04:26:21.822Z,8.25
2019-02-28T04:27:21.814Z,8.26
2019-02-28T04:28:22.683Z,8.19
2019-02-28T04:29:21.776Z,8.28
2019-02-28T04:30:21.762Z,8.25
2019-02-28T04:31:22.675Z,8.25
2019-02-28T04:32:26.676Z,8.25
2019-02-28T04:33:22.729Z,8.23
2019-02-28T04:34:21.717Z,8.23
2019-02-28T04:35:25.297Z,8.19
2019-02-28T04:36:21.699Z,8.26
2019-02-28T04:37:21.721Z,8.18
2019-02-28T04:38:21.671Z,8.22
2019-02-28T04:39:22.768Z,8.19
2019-02-28T04:40:24.047Z,8.22
2019-02-28T04:41:22.677Z,8.26
2019-02-28T04:42:21.625Z,8.22
2019-02-28T04:43:22.181Z,8.25
2019-02-28T04:44:21.604Z,8.15
2019-02-28T04:45:23.287Z,8.28
2019-02-28T04:46:21.582Z,8.25
2019-02-28T04:47:21.569Z,8.26
2019-02-28T04:48:21.573Z,8.28
2019-02-28T04:49:22.751Z,8.22
2019-02-28T04:50:21.539Z,8.25
2019-02-28T04:51:21.523Z,8.20
2019-02-28T04:52:21.511Z,8.22
2019-02-28T04:53:21.530Z,8.28
2019-02-28T04:54:24.439Z,8.25
2019-02-28T04:55:22.482Z,8.19
2019-02-28T04:56:21.466Z,8.19
2019-02-28T04:57:21.628Z,8.28
2019-02-28T04:58:22.432Z,8.25
2019-02-28T04:59:21.450Z,8.12
2019-02-28T05:00:21.424Z,8.15
2019-02-28T05:01:21.412Z,8.22
2019-02-28T05:02:21.397Z,8.11
2019-02-28T05:03:21.394Z,8.12
2019-02-28T05:04:21.391Z,8.19
2019-02-28T05:05:21.365Z,8.10
2019-02-28T05:06:21.907Z,8.12
2019-02-28T05:07:21.341Z,8.11
2019-02-28T05:08:21.329Z,8.11
2019-02-28T05:09:21.347Z,8.08
2019-02-28T05:10:22.278Z,8.08
2019-02-28T05:11:21.296Z,8.10
2019-02-28T05:12:21.285Z,8.08
2019-02-28T05:13:21.282Z,8.11
2019-02-28T05:14:23.802Z,8.08
2019-02-28T05:15:21.265Z,8.07
2019-02-28T05:16:21.237Z,8.11
2019-02-28T05:17:22.269Z,8.12
2019-02-28T05:18:21.215Z,8.07
2019-02-28T05:19:21.206Z,8.11
2019-02-28T05:20:21.208Z,8.04
2019-02-28T05:21:21.180Z,8.11
2019-02-28T05:22:21.170Z,8.08
2019-02-28T05:23:21.162Z,8.07
2019-02-28T05:24:21.151Z,8.05
2019-02-28T05:25:21.153Z,8.04
2019-02-28T05:26:23.485Z,8.01
2019-02-28T05:27:24.320Z,8.05
2019-02-28T05:28:21.103Z,8.00
2019-02-28T05:29:21.088Z,8.02
2019-02-28T05:30:21.093Z,8.08
2019-02-28T05:31:21.071Z,8.00
2019-02-28T05:32:21.058Z,8.02
2019-02-28T05:33:21.041Z,8.02
2019-02-28T05:34:21.029Z,8.02
2019-02-28T05:35:25.556Z,8.00
2019-02-28T05:36:22.010Z,8.05
2019-02-28T05:37:20.997Z,8.01
2019-02-28T05:38:22.432Z,7.98
2019-02-28T05:39:20.978Z,7.90
2019-02-28T05:40:20.964Z,7.80
2019-02-28T05:41:20.966Z,7.89
2019-02-28T05:42:23.414Z,7.86
2019-02-28T05:43:20.930Z,7.93
2019-02-28T05:44:21.405Z,7.87
2019-02-28T05:45:20.916Z,7.83
2019-02-28T05:46:23.811Z,7.87
2019-02-28T05:47:20.884Z,7.93
2019-02-28T05:48:20.871Z,7.87
2019-02-28T05:49:20.861Z,7.93
2019-02-28T05:50:20.851Z,7.82
2019-02-28T05:51:20.872Z,7.89
2019-02-28T05:52:20.824Z,7.87
2019-02-28T05:53:20.813Z,7.89
2019-02-28T05:54:20.803Z,7.74
2019-02-28T05:55:24.468Z,7.72
2019-02-28T05:56:20.779Z,7.80
2019-02-28T05:57:20.785Z,7.72
2019-02-28T05:58:20.958Z,7.85
2019-02-28T05:59:25.989Z,7.82
2019-02-28T06:00:21.731Z,7.71
2019-02-28T06:01:20.726Z,7.75
2019-02-28T06:02:22.342Z,7.71
2019-02-28T06:03:20.700Z,7.69
2019-02-28T06:04:20.706Z,7.77
2019-02-28T06:05:20.675Z,7.75
2019-02-28T06:06:20.971Z,7.75
2019-02-28T06:07:20.669Z,7.77
2019-02-28T06:08:20.641Z,7.74
2019-02-28T06:09:20.629Z,7.72
2019-02-28T06:10:24.634Z,7.77
2019-02-28T06:11:20.607Z,7.72
2019-02-28T06:12:20.623Z,7.77
2019-02-28T06:13:20.589Z,7.72
2019-02-28T06:14:20.573Z,7.72
2019-02-28T06:15:20.564Z,7.71
2019-02-28T06:16:20.564Z,7.67
2019-02-28T06:17:21.660Z,7.69
2019-02-28T06:18:20.527Z,7.80
2019-02-28T06:19:20.515Z,7.74
2019-02-28T06:20:20.508Z,7.75
2019-02-28T06:21:23.456Z,7.75
2019-02-28T06:22:20.483Z,7.69
2019-02-28T06:23:20.503Z,7.79
2019-02-28T06:24:20.461Z,7.82
2019-02-28T06:25:24.113Z,7.87
2019-02-28T06:26:21.435Z,7.85
2019-02-28T06:27:20.432Z,7.74
2019-02-28T06:28:20.416Z,7.74
2019-02-28T06:29:20.416Z,7.86
2019-02-28T06:30:20.389Z,7.85
2019-02-28T06:31:20.380Z,7.83
2019-02-28T06:32:23.592Z,7.89
2019-02-28T06:33:21.249Z,7.92
2019-02-28T06:34:20.413Z,7.85
2019-02-28T06:35:20.618Z,7.89
2019-02-28T06:36:20.328Z,7.87
2019-02-28T06:37:20.313Z,7.90
2019-02-28T06:38:20.303Z,7.87
2019-02-28T06:39:20.318Z,7.79
2019-02-28T06:40:20.276Z,7.82
2019-02-28T06:41:20.267Z,7.87
2019-02-28T06:42:20.251Z,7.85
2019-02-28T06:43:20.240Z,7.85
2019-02-28T06:44:20.228Z,7.89
2019-02-28T06:45:20.235Z,7.80
2019-02-28T06:46:20.206Z,7.92
2019-02-28T06:47:20.200Z,7.93
2019-02-28T06:48:20.833Z,7.95
2019-02-28T06:49:20.173Z,7.95
2019-02-28T06:50:20.186Z,8.04
2019-02-28T06:51:20.148Z,7.98
2019-02-28T06:52:22.276Z,8.12
2019-02-28T06:53:20.127Z,8.11
2019-02-28T06:54:20.115Z,8.10
2019-02-28T06:55:20.119Z,8.12
2019-02-28T06:56:22.664Z,8.18
2019-02-28T06:57:20.081Z,8.18
2019-02-28T06:58:20.069Z,8.19
2019-02-28T06:59:20.058Z,8.23
2019-02-28T07:00:20.064Z,8.15
2019-02-28T07:01:22.654Z,8.19
2019-02-28T07:02:20.027Z,8.40
2019-02-28T07:03:20.013Z,8.38
2019-02-28T07:04:20.005Z,8.40
2019-02-28T07:05:24.823Z,8.45
2019-02-28T07:06:20.981Z,8.44
2019-02-28T07:07:20.712Z,8.44
2019-02-28T07:08:20.737Z,8.53
2019-02-28T07:09:19.946Z,8.59
2019-02-28T07:10:19.984Z,8.58
2019-02-28T07:11:20.739Z,8.61
2019-02-28T07:12:19.912Z,8.68
2019-02-28T07:13:19.904Z,8.77
2019-02-28T07:14:19.938Z,8.79
2019-02-28T07:15:23.608Z,9.05
2019-02-28T07:16:19.889Z,9.14
2019-02-28T07:17:19.855Z,9.29
2019-02-28T07:18:20.028Z,9.43
2019-02-28T07:19:19.831Z,9.40
2019-02-28T07:20:19.819Z,9.53
2019-02-28T07:21:19.809Z,9.68
2019-02-28T07:22:20.699Z,9.78
2019-02-28T07:23:19.785Z,9.84
2019-02-28T07:24:19.775Z,9.96
2019-02-28T07:25:19.763Z,10.02
2019-02-28T07:26:19.757Z,10.08
2019-02-28T07:27:19.767Z,10.23
2019-02-28T07:28:19.735Z,10.32
2019-02-28T07:29:19.716Z,10.41
2019-02-28T07:30:19.780Z,10.51
2019-02-28T07:31:21.732Z,10.52
2019-02-28T07:32:19.681Z,10.45
2019-02-28T07:33:19.687Z,10.48
2019-02-28T07:34:22.057Z,10.68
2019-02-28T07:35:19.656Z,10.67
2019-02-28T07:36:19.642Z,10.79
2019-02-28T07:37:19.716Z,10.81
2019-02-28T07:38:19.641Z,10.92
2019-02-28T07:39:19.603Z,11.06
2019-02-28T07:40:19.605Z,11.02
2019-02-28T07:41:20.317Z,10.99
2019-02-28T07:42:19.577Z,11.07
2019-02-28T07:43:19.586Z,11.25
2019-02-28T07:44:22.190Z,11.32
2019-02-28T07:45:19.541Z,11.40
2019-02-28T07:46:19.522Z,11.46
2019-02-28T07:47:19.513Z,11.55
2019-02-28T07:48:19.502Z,11.60
2019-02-28T07:49:19.512Z,11.60
2019-02-28T07:50:19.483Z,11.70
2019-02-28T07:51:22.659Z,11.82
2019-02-28T07:52:20.524Z,11.91
2019-02-28T07:53:19.448Z,12.07
2019-02-28T07:54:20.502Z,11.95
2019-02-28T07:55:19.427Z,12.13
2019-02-28T07:56:19.412Z,12.12
2019-02-28T07:57:19.401Z,12.10
2019-02-28T07:58:19.389Z,12.16
2019-02-28T07:59:20.298Z,12.13
2019-02-28T08:00:19.729Z,12.24
2019-02-28T08:01:19.354Z,12.28
2019-02-28T08:02:19.342Z,12.37
2019-02-28T08:03:19.331Z,12.47
2019-02-28T08:04:19.466Z,12.50
2019-02-28T08:05:19.322Z,12.56
2019-02-28T08:06:19.298Z,12.50
2019-02-28T08:07:19.286Z,12.53
2019-02-28T08:08:19.277Z,12.45
2019-02-28T08:09:19.263Z,12.54
2019-02-28T08:10:19.268Z,12.53
2019-02-28T08:11:19.996Z,12.57
2019-02-28T08:12:19.230Z,12.56
2019-02-28T08:13:19.219Z,12.70
2019-02-28T08:14:19.207Z,12.72
2019-02-28T08:15:22.444Z,12.71
2019-02-28T08:16:19.187Z,12.89
2019-02-28T08:17:19.173Z,13.01
2019-02-28T08:18:19.657Z,13.17
2019-02-28T08:19:19.161Z,13.17
2019-02-28T08:20:19.169Z,13.23
2019-02-28T08:21:19.127Z,13.22
2019-02-28T08:22:23.303Z,13.26
2019-02-28T08:23:20.103Z,13.15
2019-02-28T08:24:19.094Z,13.15
2019-02-28T08:25:19.087Z,13.12
2019-02-28T08:26:19.791Z,13.32
2019-02-28T08:27:19.062Z,13.33
2019-02-28T08:28:19.052Z,13.52
2019-02-28T08:29:19.037Z,13.59
2019-02-28T08:30:19.599Z,13.69
2019-02-28T08:31:19.047Z,13.70
2019-02-28T08:32:19.004Z,13.49
2019-02-28T08:33:18.990Z,13.55
2019-02-28T08:34:20.703Z,13.69
2019-02-28T08:35:18.976Z,13.87
2019-02-28T08:36:18.958Z,13.81
2019-02-28T08:37:19.999Z,13.79
2019-02-28T08:38:18.932Z,13.95
2019-02-28T08:39:18.928Z,14.07
2019-02-28T08:40:18.919Z,14.20
2019-02-28T08:41:18.922Z,14.25
2019-02-28T08:42:18.906Z,14.36
2019-02-28T08:43:26.824Z,14.50
2019-02-28T08:44:23.773Z,14.62
2019-02-28T08:45:18.856Z,14.61
2019-02-28T08:46:18.846Z,14.73
2019-02-28T08:47:21.135Z,14.69
2019-02-28T08:48:18.833Z,14.86
2019-02-28T08:49:18.806Z,14.88
2019-02-28T08:50:20.577Z,14.99
2019-02-28T08:51:18.783Z,14.98
2019-02-28T08:52:18.772Z,15.09
2019-02-28T08:53:19.690Z,15.11
2019-02-28T08:54:26.140Z,15.23
2019-02-28T08:55:28.131Z,15.27
2019-02-28T08:56:21.255Z,15.35
2019-02-28T08:57:18.715Z,15.28
2019-02-28T08:58:18.708Z,15.25
2019-02-28T08:59:22.348Z,15.16
2019-02-28T09:00:18.681Z,15.29
2019-02-28T09:01:18.672Z,15.31
2019-02-28T09:02:19.049Z,15.31
2019-02-28T09:03:18.647Z,15.23
2019-02-28T09:04:18.663Z,15.31
2019-02-28T09:05:18.624Z,15.27
2019-02-28T09:06:18.616Z,15.32
2019-02-28T09:07:18.607Z,15.44
2019-02-28T09:08:18.598Z,15.50
2019-02-28T09:09:18.579Z,15.57
2019-02-28T09:10:18.589Z,15.76
2019-02-28T09:11:20.969Z,15.68
2019-02-28T09:12:18.545Z,15.64
2019-02-28T09:13:18.551Z,15.53
2019-02-28T09:14:18.709Z,15.65
2019-02-28T09:15:18.542Z,15.82
2019-02-28T09:16:18.499Z,15.97
2019-02-28T09:17:19.329Z,16.20
2019-02-28T09:18:18.476Z,16.38
2019-02-28T09:19:18.465Z,16.60
2019-02-28T09:20:18.456Z,16.82
2019-02-28T09:21:19.116Z,17.15
2019-02-28T09:22:18.433Z,17.36
2019-02-28T09:23:18.427Z,17.64
2019-02-28T09:24:18.411Z,17.90
2019-02-28T09:25:21.152Z,18.18
2019-02-28T09:26:18.418Z,18.50
2019-02-28T09:27:18.377Z,18.92
2019-02-28T09:28:18.364Z,19.32
2019-02-28T09:29:20.974Z,19.80
2019-02-28T09:30:18.342Z,20.29
2019-02-28T09:31:18.333Z,20.55
2019-02-28T09:32:18.335Z,20.77
2019-02-28T09:33:19.265Z,21.21
2019-02-28T09:34:18.297Z,21.64
2019-02-28T09:35:18.287Z,22.14
2019-02-28T09:36:20.692Z,22.75
2019-02-28T09:37:18.279Z,22.92
2019-02-28T09:38:18.250Z,23.23
2019-02-28T09:39:19.445Z,23.65
2019-02-28T09:40:18.229Z,23.88
2019-02-28T09:41:19.088Z,24.15
2019-02-28T09:42:18.206Z,24.35
2019-02-28T09:43:18.218Z,24.57
2019-02-28T09:44:18.184Z,24.13
2019-02-28T09:45:18.186Z,24.21
2019-02-28T09:46:18.787Z,24.25
2019-02-28T09:47:18.149Z,24.43
2019-02-28T09:48:18.155Z,24.42
2019-02-28T09:49:18.127Z,24.24
2019-02-28T09:50:19.427Z,24.34
2019-02-28T09:51:18.105Z,24.37
2019-02-28T09:52:18.093Z,24.45
2019-02-28T09:53:18.100Z,24.32
2019-02-28T09:54:18.073Z,24.50
2019-02-28T09:55:18.060Z,24.55
2019-02-28T09:56:19.432Z,24.65
2019-02-28T09:57:18.943Z,24.76
2019-02-28T09:58:18.054Z,24.80
2019-02-28T09:59:18.016Z,24.96
2019-02-28T10:00:18.003Z,25.13
2019-02-28T10:01:17.992Z,25.23
2019-02-28T10:02:17.984Z,25.33
2019-02-28T10:03:18.607Z,25.15
2019-02-28T10:04:17.988Z,25.23
2019-02-28T10:05:17.956Z,25.33
2019-02-28T10:06:17.937Z,25.58
2019-02-28T10:07:17.927Z,25.70
2019-02-28T10:08:17.915Z,25.69
2019-02-28T10:09:17.902Z,25.46
2019-02-28T10:10:21.074Z,25.20
2019-02-28T10:11:17.881Z,25.05
2019-02-28T10:12:17.868Z,25.13
2019-02-28T10:13:18.513Z,25.23
2019-02-28T10:14:17.847Z,25.46
2019-02-28T10:15:17.852Z,25.69
2019-02-28T10:16:17.823Z,25.80
2019-02-28T10:17:17.813Z,25.67
2019-02-28T10:18:17.801Z,25.80
2019-02-28T10:19:17.789Z,25.90
2019-02-28T10:20:17.810Z,26.07
2019-02-28T10:21:17.768Z,26.21
2019-02-28T10:22:17.757Z,26.36
2019-02-28T10:23:18.474Z,26.50
2019-02-28T10:24:17.758Z,26.52
2019-02-28T10:25:17.723Z,26.60
2019-02-28T10:26:17.908Z,26.65
2019-02-28T10:27:17.742Z,26.63
2019-02-28T10:28:17.692Z,26.43
2019-02-28T10:29:17.685Z,26.51
2019-02-28T10:30:17.668Z,26.43
2019-02-28T10:31:17.686Z,25.64
2019-02-28T10:32:17.643Z,25.28
2019-02-28T10:33:18.093Z,25.65
2019-02-28T10:34:17.623Z,25.39
2019-02-28T10:35:18.510Z,25.36
2019-02-28T10:36:17.630Z,25.52
2019-02-28T10:37:19.319Z,25.50
2019-02-28T10:38:17.575Z,25.55
2019-02-28T10:39:17.567Z,25.95
2019-02-28T10:40:18.502Z,26.21
2019-02-28T10:41:18.259Z,26.05
2019-02-28T10:42:17.565Z,26.02
2019-02-28T10:43:17.528Z,26.13
2019-02-28T10:44:17.513Z,26.23
2019-02-28T10:45:17.500Z,25.91
2019-02-28T10:46:20.118Z,25.55
2019-02-28T10:47:17.483Z,25.17
2019-02-28T10:48:17.491Z,24.42
2019-02-28T10:49:17.463Z,23.72
2019-02-28T10:50:17.446Z,23.55
2019-02-28T10:51:17.436Z,23.27
2019-02-28T10:52:17.427Z,23.17
2019-02-28T10:53:17.434Z,22.67
2019-02-28T10:54:17.404Z,22.28
2019-02-28T10:55:19.377Z,22.57
2019-02-28T10:56:17.384Z,22.76
2019-02-28T10:57:17.370Z,23.15
2019-02-28T10:58:17.371Z,23.28
2019-02-28T10:59:17.348Z,23.69
2019-02-28T11:00:17.342Z,24.27
2019-02-28T11:01:17.326Z,24.85
2019-02-28T11:02:19.795Z,25.45
2019-02-28T11:03:17.332Z,26.09
2019-02-28T11:04:17.290Z,26.20
2019-02-28T11:05:18.754Z,26.47
2019-02-28T11:06:17.284Z,26.47
2019-02-28T11:07:17.259Z,26.58
2019-02-28T11:08:19.175Z,27.00
2019-02-28T11:09:18.295Z,27.21
2019-02-28T11:10:17.226Z,27.39
2019-02-28T11:11:17.216Z,27.29
2019-02-28T11:12:20.322Z,27.03
2019-02-28T11:13:18.190Z,26.82
2019-02-28T11:14:17.211Z,26.10
2019-02-28T11:15:17.170Z,24.81
2019-02-28T11:16:17.157Z,23.66
2019-02-28T11:17:17.145Z,22.70
2019-02-28T11:18:17.136Z,21.94
2019-02-28T11:19:19.450Z,21.17
2019-02-28T11:20:22.224Z,20.48
2019-02-28T11:21:18.103Z,19.58
2019-02-28T11:22:17.095Z,18.81
2019-02-28T11:23:17.090Z,18.30
2019-02-28T11:24:17.068Z,17.87
2019-02-28T11:25:17.077Z,17.43
2019-02-28T11:26:17.045Z,17.08
2019-02-28T11:27:19.719Z,16.71
2019-02-28T11:28:18.030Z,16.49
2019-02-28T11:29:17.013Z,16.25
2019-02-28T11:30:17.031Z,16.23
2019-02-28T11:31:19.169Z,16.08
2019-02-28T11:32:16.984Z,15.92
2019-02-28T11:33:16.970Z,15.90
2019-02-28T11:34:18.787Z,15.78
2019-02-28T11:35:16.948Z,15.72
2019-02-28T11:36:16.957Z,15.74
2019-02-28T11:37:23.783Z,15.72
2019-02-28T11:38:20.341Z,15.74
2019-02-28T11:39:16.898Z,15.76
2019-02-28T11:40:16.888Z,15.84
2019-02-28T11:41:18.573Z,15.72
2019-02-28T11:42:16.864Z,15.74
2019-02-28T11:43:16.854Z,15.74
2019-02-28T11:44:16.845Z,15.69
2019-02-28T11:45:18.538Z,15.68
2019-02-28T11:46:16.851Z,15.69
2019-02-28T11:47:16.809Z,15.57
2019-02-28T11:48:20.120Z,15.59
2019-02-28T11:49:16.787Z,15.60
2019-02-28T11:50:16.776Z,15.64
2019-02-28T11:51:17.819Z,15.69
2019-02-28T11:52:16.788Z,15.67
2019-02-28T11:53:16.747Z,15.67
2019-02-28T11:54:16.730Z,15.56
2019-02-28T11:55:20.167Z,15.50
2019-02-28T11:56:16.709Z,15.46
2019-02-28T11:57:16.696Z,15.49
2019-02-28T11:58:17.946Z,15.49
2019-02-28T11:59:16.677Z,15.51
2019-02-28T12:00:16.664Z,15.56
2019-02-28T12:01:16.677Z,15.64
2019-02-28T12:02:20.230Z,15.64
2019-02-28T12:03:16.647Z,15.64
2019-02-28T12:04:16.622Z,15.65
2019-02-28T12:05:16.614Z,15.68
2019-02-28T12:06:16.596Z,15.67
2019-02-28T12:07:16.585Z,15.69
2019-02-28T12:08:16.600Z,15.56
2019-02-28T12:09:19.274Z,15.49
2019-02-28T12:10:16.550Z,15.43
2019-02-28T12:11:16.539Z,15.53
2019-02-28T12:12:16.528Z,15.46
2019-02-28T12:13:19.605Z,15.43
2019-02-28T12:14:16.537Z,15.46
2019-02-28T12:15:16.494Z,15.44
2019-02-28T12:16:19.133Z,15.39
2019-02-28T12:17:16.471Z,15.51
2019-02-28T12:18:16.461Z,15.53
2019-02-28T12:19:16.819Z,15.47
2019-02-28T12:20:16.466Z,15.51
2019-02-28T12:21:16.425Z,15.47
2019-02-28T12:22:16.414Z,15.54
2019-02-28T12:23:16.402Z,15.57
2019-02-28T12:24:16.392Z,15.59
2019-02-28T12:25:16.387Z,15.67
2019-02-28T12:26:17.722Z,15.65
2019-02-28T12:27:16.358Z,15.50
2019-02-28T12:28:16.348Z,15.53
2019-02-28T12:29:18.214Z,15.59
2019-02-28T12:30:16.323Z,15.51
2019-02-28T12:31:16.331Z,15.51
2019-02-28T12:32:16.301Z,15.54
2019-02-28T12:33:18.985Z,15.54
2019-02-28T12:34:17.276Z,15.54
2019-02-28T12:35:16.266Z,15.68
2019-02-28T12:36:16.272Z,15.57
2019-02-28T12:37:16.245Z,15.54
2019-02-28T12:38:16.231Z,15.51
2019-02-28T12:39:16.218Z,15.54
2019-02-28T12:40:16.211Z,15.56
2019-02-28T12:41:16.212Z,15.57
2019-02-28T12:42:16.184Z,15.50
2019-02-28T12:43:16.174Z,15.54
2019-02-28T12:44:16.222Z,15.49
2019-02-28T12:45:16.150Z,15.49
2019-02-28T12:46:16.171Z,15.47
2019-02-28T12:47:16.127Z,15.65
2019-02-28T12:48:16.119Z,15.65
2019-02-28T12:49:16.104Z,15.64
2019-02-28T12:50:16.094Z,15.64
2019-02-28T12:51:16.084Z,15.62
2019-02-28T12:52:16.097Z,15.62
2019-02-28T12:53:16.057Z,15.65
2019-02-28T12:54:16.044Z,15.47
2019-02-28T12:55:16.038Z,15.39
2019-02-28T12:56:16.026Z,15.32
2019-02-28T12:57:16.014Z,15.32
2019-02-28T12:58:16.021Z,15.29
2019-02-28T12:59:15.996Z,15.32
2019-02-28T13:00:15.977Z,15.23
2019-02-28T13:01:15.968Z,15.23
2019-02-28T13:02:15.953Z,15.27
2019-02-28T13:03:19.815Z,15.25
2019-02-28T13:04:16.943Z,15.31
2019-02-28T13:05:16.094Z,15.29
2019-02-28T13:06:15.911Z,15.23
2019-02-28T13:07:15.898Z,15.32